createdAt,value
2022-08-03T00:04:52.225Z,26.70
2022-08-03T00:09:59.457Z,26.70
2022-08-03T00:15:11.076Z,26.70
2022-08-03T00:20:13.940Z,26.80
2022-08-03T00:25:21.159Z,26.80
2022-08-03T00:30:30.783Z,26.90
2022-08-03T00:35:36.843Z,26.90
2022-08-03T00:40:42.851Z,26.90
2022-08-03T00:45:50.161Z,27.00
2022-08-03T00:50:57.329Z,27.00
2022-08-03T00:56:04.572Z,27.10
2022-08-03T01:01:11.856Z,27.20
2022-08-03T01:06:18.948Z,26.90
2022-08-03T01:11:26.142Z,26.60
2022-08-03T01:16:36.790Z,26.40
2022-08-03T01:21:40.705Z,26.10
2022-08-03T01:26:47.899Z,26.10
2022-08-03T01:32:58.669Z,26.10
2022-08-03T01:37:02.229Z,26.00
2022-08-03T01:42:09.433Z,25.90
2022-08-03T01:47:16.565Z,25.90
2022-08-03T01:52:23.789Z,25.70
2022-08-03T01:57:31.084Z,25.70
2022-08-03T02:02:38.739Z,25.70
2022-08-03T02:07:45.446Z,25.50
2022-08-03T02:12:52.644Z,25.40
2022-08-03T02:17:59.818Z,25.30
2022-08-03T02:23:06.993Z,25.20
2022-08-03T02:28:14.164Z,25.10
2022-08-03T02:33:21.397Z,24.90
2022-08-03T02:38:28.564Z,24.90
2022-08-03T02:44:00.352Z,24.80
2022-08-03T02:48:42.950Z,24.70
2022-08-03T02:53:50.115Z,24.60
2022-08-03T02:58:57.337Z,24.50
2022-08-03T03:04:04.588Z,24.50
2022-08-03T03:09:11.838Z,24.50
2022-08-03T03:14:19.106Z,24.40
2022-08-03T03:19:26.297Z,24.30
2022-08-03T03:24:33.515Z,24.10
2022-08-03T03:29:40.737Z,24.20
2022-08-03T03:34:47.962Z,24.00
2022-08-03T03:39:55.175Z,24.10
2022-08-03T03:45:02.359Z,24.10
2022-08-03T03:50:09.616Z,24.00
2022-08-03T03:55:16.829Z,23.80
2022-08-03T04:00:24.048Z,23.90
2022-08-03T04:05:31.297Z,23.70
2022-08-03T04:10:39.080Z,23.80
2022-08-03T04:15:46.295Z,23.70
2022-08-03T04:20:53.468Z,23.60
2022-08-03T04:26:00.757Z,23.60
2022-08-03T04:31:07.974Z,23.50
2022-08-03T04:36:15.200Z,23.40
2022-08-03T04:41:22.338Z,23.30
2022-08-03T04:46:29.573Z,23.30
2022-08-03T04:51:36.754Z,23.20
2022-08-03T04:56:43.960Z,23.30
2022-08-03T05:01:51.178Z,23.30
2022-08-03T05:06:58.451Z,23.30
2022-08-03T05:12:05.604Z,23.20
2022-08-03T05:17:12.779Z,23.30
2022-08-03T05:22:20.021Z,23.30
2022-08-03T05:27:27.259Z,23.40
2022-08-03T05:32:34.462Z,23.30
2022-08-03T05:37:41.705Z,23.30
2022-08-03T05:42:48.955Z,23.30
2022-08-03T05:47:56.188Z,23.30
2022-08-03T05:53:03.395Z,23.30
2022-08-03T05:58:10.540Z,23.40
2022-08-03T06:03:17.725Z,23.50
2022-08-03T06:08:24.954Z,23.60
2022-08-03T06:13:32.177Z,23.50
2022-08-03T06:18:39.309Z,23.70
2022-08-03T06:23:54.532Z,23.80
2022-08-03T06:28:54.646Z,23.90
2022-08-03T06:34:34.303Z,24.00
2022-08-03T06:39:08.455Z,24.00
2022-08-03T06:44:15.597Z,24.20
2022-08-03T06:49:22.917Z,24.20
2022-08-03T06:54:32.885Z,24.30
2022-08-03T07:00:09.607Z,24.50
2022-08-03T07:04:45.389Z,24.50
2022-08-03T07:09:57.168Z,24.60
2022-08-03T07:15:02.622Z,24.70
2022-08-03T07:20:06.957Z,24.70
2022-08-03T07:25:14.133Z,24.80
2022-08-03T07:30:21.279Z,24.90
2022-08-03T07:35:29.051Z,25.00
2022-08-03T07:40:36.287Z,25.00
2022-08-03T07:45:43.538Z,25.00
2022-08-03T07:50:50.770Z,25.10
2022-08-03T07:55:58.048Z,25.20
2022-08-03T08:01:05.256Z,25.20
2022-08-03T08:06:12.458Z,25.40
2022-08-03T08:11:19.700Z,25.40
2022-08-03T08:16:26.955Z,25.40
2022-08-03T08:21:53.236Z,25.60
2022-08-03T08:26:41.347Z,25.60
2022-08-03T08:31:48.525Z,25.60
2022-08-03T08:36:55.737Z,25.60
2022-08-03T08:42:02.927Z,25.80
2022-08-03T08:47:10.124Z,25.80
2022-08-03T08:52:25.224Z,25.90
2022-08-03T08:57:41.890Z,25.90
2022-08-03T09:02:31.943Z,26.00
2022-08-03T09:07:39.201Z,26.00
2022-08-03T09:12:46.460Z,26.10
2022-08-03T09:17:53.609Z,26.10
2022-08-03T09:23:00.790Z,26.20
2022-08-03T09:28:07.951Z,26.20
2022-08-03T09:33:15.175Z,26.30
2022-08-03T09:38:22.347Z,26.20
2022-08-03T09:43:29.530Z,26.40
2022-08-03T09:48:36.715Z,26.40
2022-08-03T09:53:58.521Z,26.50
2022-08-03T09:58:51.179Z,26.50
2022-08-03T10:04:04.054Z,26.60
2022-08-03T10:09:05.670Z,26.70
2022-08-03T10:14:12.857Z,26.60
2022-08-03T10:19:20.065Z,26.70
2022-08-03T10:24:27.327Z,26.80
2022-08-03T10:29:34.512Z,26.90
2022-08-03T10:34:44.541Z,26.90
2022-08-03T10:39:49.003Z,26.90
2022-08-03T10:44:56.255Z,27.00
2022-08-03T10:50:03.443Z,27.00
2022-08-03T10:55:10.875Z,27.00
2022-08-03T11:00:17.979Z,27.10
2022-08-03T11:05:25.206Z,27.10
2022-08-03T11:10:32.474Z,27.00
2022-08-03T11:15:40.329Z,27.20
2022-08-03T11:20:47.466Z,27.10
2022-08-03T11:25:55.423Z,27.20
2022-08-03T11:31:01.931Z,27.30
2022-08-03T11:36:09.123Z,27.30
2022-08-03T11:41:16.322Z,27.30
2022-08-03T11:46:28.279Z,27.40
2022-08-03T11:51:30.845Z,27.40
2022-08-03T11:56:38.094Z,27.40
2022-08-03T12:01:45.335Z,27.50
2022-08-03T12:06:52.556Z,27.50
2022-08-03T12:12:01.256Z,27.50
2022-08-03T12:17:07.065Z,27.50
2022-08-03T12:22:14.268Z,27.60
2022-08-03T12:27:21.490Z,27.60
2022-08-03T12:32:28.777Z,27.70
2022-08-03T12:37:36.443Z,27.70
2022-08-03T12:42:43.241Z,27.80
2022-08-03T12:47:50.534Z,27.80
2022-08-03T12:52:57.776Z,27.80
2022-08-03T12:58:04.985Z,27.80
2022-08-03T13:03:39.796Z,27.90
2022-08-03T13:08:19.368Z,27.90
2022-08-03T13:13:26.667Z,27.90
2022-08-03T13:18:33.908Z,27.90
2022-08-03T13:23:41.103Z,27.80
2022-08-03T13:28:48.332Z,27.90
2022-08-03T13:33:55.769Z,28.00
2022-08-03T13:39:03.097Z,28.00
2022-08-03T13:44:28.307Z,28.00
2022-08-03T13:49:17.462Z,28.00
2022-08-03T13:54:24.712Z,28.00
2022-08-03T13:59:31.902Z,28.10
2022-08-03T14:04:39.087Z,28.00
2022-08-03T14:09:46.444Z,28.10
2022-08-03T14:14:56.970Z,28.10
2022-08-03T14:20:01.008Z,28.10
2022-08-03T14:25:09.787Z,28.10
2022-08-03T14:30:15.315Z,28.20
2022-08-03T14:35:22.499Z,28.20
2022-08-03T14:40:29.713Z,28.20
2022-08-03T14:45:36.971Z,28.30
2022-08-03T14:50:50.165Z,28.30
2022-08-03T14:55:52.031Z,28.30
2022-08-03T15:00:58.588Z,28.30
2022-08-03T15:06:05.840Z,28.30
2022-08-03T15:11:13.012Z,28.40
2022-08-03T15:16:20.220Z,28.40
2022-08-03T15:21:46.559Z,28.40
2022-08-03T15:26:39.270Z,28.40
2022-08-03T15:31:41.808Z,28.40
2022-08-03T15:36:49.052Z,28.40
2022-08-03T15:41:56.211Z,28.50
2022-08-03T15:47:03.592Z,28.30
2022-08-03T15:52:10.938Z,28.50
2022-08-03T15:57:18.690Z,28.50
2022-08-03T16:02:25.394Z,28.50
2022-08-03T16:07:32.589Z,28.50
2022-08-03T16:12:40.134Z,28.60
2022-08-03T16:17:47.330Z,28.60
2022-08-03T16:22:54.700Z,28.60
2022-08-03T16:28:07.924Z,28.60
2022-08-03T16:33:09.105Z,28.60
2022-08-03T16:38:19.139Z,28.60
2022-08-03T16:43:23.867Z,28.70
2022-08-03T16:48:31.103Z,28.70
2022-08-03T16:54:05.594Z,28.70
2022-08-03T16:58:46.846Z,28.70
2022-08-03T17:04:01.317Z,28.70
2022-08-03T17:09:01.717Z,28.70
2022-08-03T17:14:09.889Z,28.70
2022-08-03T17:19:16.153Z,28.70
2022-08-03T17:24:23.340Z,28.70
2022-08-03T17:29:30.648Z,28.70
2022-08-03T17:34:37.870Z,28.80
2022-08-03T17:40:00.301Z,28.80
2022-08-03T17:44:52.272Z,28.70
2022-08-03T17:49:59.423Z,28.70
2022-08-03T17:55:57.137Z,28.80
2022-08-03T18:00:13.842Z,28.80
2022-08-03T18:05:21.976Z,28.90
2022-08-03T18:10:28.378Z,28.80
2022-08-03T18:15:35.595Z,28.80
2022-08-03T18:20:42.863Z,28.80
2022-08-03T18:25:56.128Z,28.80
2022-08-03T18:30:57.863Z,28.80
2022-08-03T18:36:05.115Z,28.80
2022-08-03T18:41:17.129Z,28.90
2022-08-03T18:46:19.631Z,28.90
2022-08-03T18:51:33.928Z,28.80
2022-08-03T18:56:34.232Z,28.90
2022-08-03T19:01:57.449Z,28.90
2022-08-03T19:06:49.272Z,28.90
2022-08-03T19:12:12.553Z,28.90
2022-08-03T19:17:04.409Z,28.80
2022-08-03T19:22:12.021Z,28.90
2022-08-03T19:27:19.420Z,28.80
2022-08-03T19:32:27.811Z,28.80
2022-08-03T19:37:39.754Z,28.80
2022-08-03T19:42:42.885Z,28.70
2022-08-03T19:47:50.232Z,28.70
2022-08-03T19:52:57.505Z,28.60
2022-08-03T19:58:05.010Z,28.70
2022-08-03T20:03:21.872Z,28.80
2022-08-03T20:08:20.027Z,28.80
2022-08-03T20:13:28.311Z,28.80
2022-08-03T20:18:39.233Z,28.90
2022-08-03T20:24:01.931Z,28.70
2022-08-03T20:28:51.178Z,28.70
2022-08-03T20:33:57.430Z,28.80
2022-08-03T20:39:07.497Z,28.60
2022-08-03T20:44:11.809Z,28.60
2022-08-03T20:49:19.085Z,28.80
2022-08-03T20:54:31.326Z,28.60
2022-08-03T20:59:47.333Z,28.70
2022-08-03T21:04:40.714Z,28.60
2022-08-03T21:09:49.711Z,28.60
2022-08-03T21:14:55.200Z,28.60
2022-08-03T21:20:02.479Z,28.70
2022-08-03T21:25:09.802Z,28.80
2022-08-03T21:30:16.978Z,28.70
2022-08-03T21:35:24.230Z,28.70
2022-08-03T21:40:31.454Z,28.80
2022-08-03T21:45:40.394Z,28.70
2022-08-03T21:50:45.886Z,28.90
2022-08-03T21:55:53.210Z,28.80
2022-08-03T22:01:00.467Z,28.80
2022-08-03T22:06:07.705Z,28.70
2022-08-03T22:11:14.993Z,28.70
2022-08-03T22:16:22.123Z,28.70
2022-08-03T22:21:36.298Z,28.70
2022-08-03T22:26:36.607Z,28.60
2022-08-03T22:31:58.221Z,28.60
2022-08-03T22:36:51.070Z,28.50
2022-08-03T22:41:58.237Z,28.40
2022-08-03T22:47:05.511Z,28.30
2022-08-03T22:52:12.712Z,28.20
2022-08-03T22:57:20.330Z,28.20
2022-08-03T23:02:27.134Z,28.20
2022-08-03T23:07:34.397Z,28.20
2022-08-03T23:12:41.622Z,28.20
2022-08-03T23:17:57.988Z,28.20
2022-08-03T23:22:56.296Z,28.10
2022-08-03T23:28:05.500Z,28.10
2022-08-03T23:33:10.747Z,28.00
2022-08-03T23:38:21.943Z,28.00
2022-08-03T23:43:45.161Z,27.90
2022-08-03T23:48:32.459Z,27.90
2022-08-03T23:53:39.639Z,27.80
2022-08-03T23:58:46.809Z,27.90
